createdAt,value
2018-12-30T00:02:03.912Z,76.58
2018-12-30T00:04:30.334Z,76.50
2018-12-30T00:06:56.535Z,76.59
2018-12-30T00:09:22.835Z,76.57
2018-12-30T00:11:49.178Z,76.68
2018-12-30T00:14:15.485Z,76.66
2018-12-30T00:16:41.756Z,76.88
2018-12-30T00:19:08.054Z,76.95
2018-12-30T00:21:34.355Z,77.14
2018-12-30T00:24:00.635Z,77.20
2018-12-30T00:26:26.921Z,77.25
2018-12-30T00:28:53.235Z,77.29
2018-12-30T00:31:19.518Z,77.35
2018-12-30T00:33:46.168Z,77.59
2018-12-30T00:36:12.462Z,77.75
2018-12-30T00:38:38.778Z,77.75
2018-12-30T00:41:05.061Z,77.83
2018-12-30T00:43:31.388Z,77.82
2018-12-30T00:45:57.671Z,77.87
2018-12-30T00:48:23.949Z,77.80
2018-12-30T00:50:50.246Z,77.83
2018-12-30T00:53:16.533Z,78.13
2018-12-30T00:55:42.865Z,78.02
2018-12-30T00:58:09.157Z,78.07
2018-12-30T01:00:35.453Z,78.07
2018-12-30T01:03:01.743Z,77.90
2018-12-30T01:05:28.035Z,77.86
2018-12-30T01:07:54.325Z,77.75
2018-12-30T01:10:20.598Z,77.72
2018-12-30T01:12:46.914Z,77.68
2018-12-30T01:15:13.218Z,77.72
2018-12-30T01:17:39.551Z,77.70
2018-12-30T01:20:05.812Z,77.38
2018-12-30T01:22:32.104Z,77.25
2018-12-30T01:24:58.406Z,77.21
2018-12-30T01:27:24.694Z,76.94
2018-12-30T01:29:51.004Z,76.72
2018-12-30T01:32:17.325Z,76.56
2018-12-30T01:34:43.627Z,76.48
2018-12-30T01:37:09.911Z,76.37
2018-12-30T01:39:36.194Z,76.53
2018-12-30T01:42:02.529Z,76.49
2018-12-30T01:44:28.810Z,76.42
2018-12-30T01:46:55.120Z,76.37
2018-12-30T01:49:21.392Z,76.45
2018-12-30T01:51:47.689Z,76.76
2018-12-30T01:54:13.976Z,76.82
2018-12-30T01:56:40.264Z,76.86
2018-12-30T01:59:06.545Z,76.81
2018-12-30T02:01:32.855Z,76.90
2018-12-30T02:03:59.156Z,76.83
2018-12-30T02:06:25.453Z,76.84
2018-12-30T02:08:51.748Z,76.90
2018-12-30T02:11:18.031Z,76.83
2018-12-30T02:13:44.360Z,76.83
2018-12-30T02:16:10.671Z,76.70
2018-12-30T02:18:36.992Z,76.76
2018-12-30T02:21:03.300Z,76.93
2018-12-30T02:23:29.601Z,76.68
2018-12-30T02:25:55.879Z,76.45
2018-12-30T02:28:22.170Z,75.96
2018-12-30T02:30:48.452Z,75.75
2018-12-30T02:33:14.742Z,75.52
2018-12-30T02:35:41.018Z,75.42
2018-12-30T02:38:07.287Z,75.54
2018-12-30T02:40:33.582Z,75.28
2018-12-30T02:42:59.891Z,75.25
2018-12-30T02:45:26.197Z,75.21
2018-12-30T02:47:52.489Z,74.81
2018-12-30T02:50:18.789Z,74.92
2018-12-30T02:52:45.076Z,74.56
2018-12-30T02:55:11.368Z,74.04
2018-12-30T02:57:37.646Z,73.90
2018-12-30T03:00:05.998Z,75.37
2018-12-30T03:02:32.279Z,72.58
2018-12-30T03:04:58.579Z,72.77
2018-12-30T03:07:24.943Z,73.17
2018-12-30T03:09:51.153Z,72.84
2018-12-30T03:12:17.435Z,72.80
2018-12-30T03:14:43.733Z,72.80
2018-12-30T03:17:10.078Z,73.41
2018-12-30T03:19:36.357Z,73.50
2018-12-30T03:22:03.752Z,72.19
2018-12-30T03:24:30.367Z,72.20
2018-12-30T03:26:56.668Z,72.33
2018-12-30T03:29:22.977Z,72.24
2018-12-30T03:31:49.278Z,71.97
2018-12-30T03:34:15.580Z,71.97
2018-12-30T03:36:41.874Z,72.11
2018-12-30T03:39:08.155Z,71.91
2018-12-30T03:41:34.671Z,72.13
2018-12-30T03:44:00.964Z,72.03
2018-12-30T03:46:27.244Z,72.18
2018-12-30T03:48:53.537Z,72.30
2018-12-30T03:51:19.825Z,72.18
2018-12-30T03:53:46.139Z,71.95
2018-12-30T03:56:12.448Z,71.96
2018-12-30T03:58:38.769Z,71.57
2018-12-30T04:01:05.052Z,71.66
2018-12-30T04:03:31.317Z,71.85
2018-12-30T04:05:57.651Z,71.15
2018-12-30T04:08:23.925Z,71.09
2018-12-30T04:10:50.212Z,71.18
2018-12-30T04:13:16.534Z,71.29
2018-12-30T04:15:42.811Z,70.97
2018-12-30T04:18:09.144Z,70.74
2018-12-30T04:20:35.419Z,71.18
2018-12-30T04:23:01.705Z,70.80
2018-12-30T04:25:27.985Z,70.98
2018-12-30T04:27:54.279Z,70.92
2018-12-30T04:30:20.554Z,70.99
2018-12-30T04:32:46.829Z,70.89
2018-12-30T04:35:13.106Z,70.94
2018-12-30T04:37:39.403Z,70.50
2018-12-30T04:40:05.684Z,70.46
2018-12-30T04:42:32.014Z,70.66
2018-12-30T04:44:58.318Z,71.16
2018-12-30T04:47:24.612Z,70.71
2018-12-30T04:49:50.901Z,70.71
2018-12-30T04:52:25.376Z,71.19
2018-12-30T04:54:43.494Z,71.36
2018-12-30T04:57:09.777Z,70.81
2018-12-30T04:59:36.091Z,71.15
2018-12-30T05:02:02.393Z,70.95
2018-12-30T05:04:28.691Z,71.13
2018-12-30T05:06:54.984Z,70.73
2018-12-30T05:09:21.287Z,70.48
2018-12-30T05:11:47.613Z,70.66
2018-12-30T05:14:13.917Z,70.79
2018-12-30T05:16:40.200Z,70.62
2018-12-30T05:19:06.490Z,70.65
2018-12-30T05:21:32.780Z,70.83
2018-12-30T05:23:59.068Z,70.85
2018-12-30T05:26:25.421Z,70.99
2018-12-30T05:28:52.125Z,70.90
2018-12-30T05:31:19.379Z,71.07
2018-12-30T05:33:45.722Z,71.39
2018-12-30T05:36:12.987Z,71.41
2018-12-30T05:38:39.634Z,71.29
2018-12-30T05:41:07.364Z,71.31
2018-12-30T05:43:35.875Z,71.29
2018-12-30T05:46:02.171Z,71.33
2018-12-30T05:48:31.611Z,71.48
2018-12-30T05:50:57.890Z,71.43
2018-12-30T05:53:24.186Z,71.47
2018-12-30T05:55:50.648Z,71.86
2018-12-30T05:58:17.042Z,71.53
2018-12-30T06:00:43.403Z,71.47
2018-12-30T06:03:11.682Z,71.83
2018-12-30T06:05:46.360Z,71.64
2018-12-30T06:08:13.161Z,71.40
2018-12-30T06:10:40.682Z,71.85
2018-12-30T06:13:10.790Z,72.19
2018-12-30T06:15:37.443Z,71.77
2018-12-30T06:18:05.070Z,71.40
2018-12-30T06:20:32.827Z,71.13
2018-12-30T06:22:59.264Z,71.03
2018-12-30T06:25:41.458Z,71.16
2018-12-30T06:28:10.907Z,70.93
2018-12-30T06:30:37.727Z,71.16
2018-12-30T06:33:05.616Z,71.30
2018-12-30T06:35:32.413Z,70.86
2018-12-30T06:38:03.062Z,71.07
2018-12-30T06:40:31.888Z,70.97
2018-12-30T06:42:59.380Z,70.77
2018-12-30T06:45:25.675Z,70.92
2018-12-30T06:47:51.964Z,71.26
2018-12-30T06:50:18.315Z,71.04
2018-12-30T06:52:44.603Z,71.16
2018-12-30T06:55:10.898Z,70.87
2018-12-30T06:57:37.190Z,70.98
2018-12-30T07:00:03.531Z,70.87
2018-12-30T07:02:29.853Z,70.81
2018-12-30T07:04:56.136Z,70.69
2018-12-30T07:07:22.523Z,70.45
2018-12-30T07:09:48.894Z,70.33
2018-12-30T07:12:15.201Z,70.74
2018-12-30T07:14:41.580Z,70.14
2018-12-30T07:17:07.932Z,69.97
2018-12-30T07:19:34.261Z,69.87
2018-12-30T07:22:00.819Z,69.71
2018-12-30T07:24:27.152Z,69.54
2018-12-30T07:26:53.514Z,69.92
2018-12-30T07:29:19.949Z,70.00
2018-12-30T07:31:46.360Z,69.96
2018-12-30T07:34:13.474Z,69.57
2018-12-30T07:36:39.918Z,69.52
2018-12-30T07:39:06.149Z,69.39
2018-12-30T07:41:32.426Z,68.96
2018-12-30T07:43:58.715Z,68.93
2018-12-30T07:46:25.043Z,68.89
2018-12-30T07:48:51.361Z,68.91
2018-12-30T07:51:17.641Z,68.97
2018-12-30T07:53:43.944Z,68.72
2018-12-30T07:56:10.233Z,68.72
2018-12-30T07:58:36.554Z,68.59
2018-12-30T08:01:02.866Z,68.46
2018-12-30T08:03:29.149Z,68.08
2018-12-30T08:05:58.961Z,67.94
2018-12-30T08:08:25.607Z,68.11
2018-12-30T08:10:51.957Z,67.72
2018-12-30T08:13:18.264Z,67.82
2018-12-30T08:15:44.581Z,67.62
2018-12-30T08:18:10.897Z,67.20
2018-12-30T08:20:37.213Z,66.95
2018-12-30T08:23:03.542Z,67.20
2018-12-30T08:25:29.856Z,66.68
2018-12-30T08:27:56.159Z,66.56
2018-12-30T08:30:22.416Z,66.40
2018-12-30T08:32:48.726Z,66.42
2018-12-30T08:35:15.051Z,66.69
2018-12-30T08:37:41.348Z,66.32
2018-12-30T08:40:07.655Z,66.35
2018-12-30T08:42:34.004Z,66.40
2018-12-30T08:45:00.314Z,65.81
2018-12-30T08:47:26.681Z,66.95
2018-12-30T08:49:53.044Z,66.37
2018-12-30T08:52:19.890Z,66.44
2018-12-30T08:54:46.122Z,68.40
2018-12-30T08:57:12.460Z,66.68
2018-12-30T08:59:38.789Z,65.71
2018-12-30T09:02:08.164Z,66.12
2018-12-30T09:04:34.460Z,66.22
2018-12-30T09:07:02.214Z,65.84
2018-12-30T09:09:28.504Z,66.13
2018-12-30T09:11:55.190Z,66.80
2018-12-30T09:14:21.495Z,66.44
2018-12-30T09:16:47.826Z,66.60
2018-12-30T09:19:14.561Z,66.91
2018-12-30T09:21:40.888Z,66.29
2018-12-30T09:24:07.301Z,66.48
2018-12-30T09:26:33.606Z,67.01
2018-12-30T09:28:59.918Z,67.07
2018-12-30T09:31:26.231Z,67.25
2018-12-30T09:33:52.555Z,67.19
2018-12-30T09:36:18.871Z,67.40
2018-12-30T09:38:45.176Z,67.79
2018-12-30T09:41:11.469Z,68.07
2018-12-30T09:43:37.835Z,67.86
2018-12-30T09:46:04.288Z,68.42
2018-12-30T09:48:33.926Z,68.52
2018-12-30T09:50:56.944Z,68.76
2018-12-30T09:53:23.329Z,69.00
2018-12-30T09:55:49.624Z,68.96
2018-12-30T09:58:15.926Z,69.19
2018-12-30T10:00:42.242Z,69.44
2018-12-30T10:03:08.542Z,69.17
2018-12-30T10:05:34.883Z,68.98
2018-12-30T10:08:01.244Z,69.04
2018-12-30T10:10:27.510Z,69.31
2018-12-30T10:12:54.434Z,69.73
2018-12-30T10:15:20.738Z,69.91
2018-12-30T10:17:47.110Z,70.34
2018-12-30T10:20:13.403Z,70.68
2018-12-30T10:22:39.741Z,70.39
2018-12-30T10:25:06.084Z,70.42
2018-12-30T10:27:32.385Z,70.77
2018-12-30T10:29:58.675Z,71.24
2018-12-30T10:32:25.123Z,71.35
2018-12-30T10:34:51.364Z,72.16
2018-12-30T10:37:17.710Z,72.10
2018-12-30T10:39:44.000Z,72.13
2018-12-30T10:42:10.408Z,71.57
2018-12-30T10:44:36.702Z,71.55
2018-12-30T10:47:02.997Z,71.78
2018-12-30T10:49:29.320Z,72.24
2018-12-30T10:51:55.616Z,72.36
2018-12-30T10:54:21.926Z,73.25
2018-12-30T10:56:48.281Z,72.88
2018-12-30T10:59:14.610Z,72.91
2018-12-30T11:01:40.987Z,73.29
2018-12-30T11:04:07.604Z,73.60
2018-12-30T11:06:33.912Z,73.87
2018-12-30T11:09:00.267Z,74.38
2018-12-30T11:11:26.558Z,74.66
2018-12-30T11:13:53.172Z,74.21
2018-12-30T11:16:19.549Z,74.39
2018-12-30T11:18:46.420Z,74.57
2018-12-30T11:21:12.982Z,74.60
2018-12-30T11:23:39.259Z,74.85
2018-12-30T11:26:05.631Z,74.23
2018-12-30T11:28:31.906Z,74.31
2018-12-30T11:30:58.190Z,74.53
2018-12-30T11:33:24.494Z,74.46
2018-12-30T11:35:50.850Z,74.17
2018-12-30T11:38:17.188Z,74.20
2018-12-30T11:40:43.487Z,74.44
2018-12-30T11:43:09.806Z,74.25
2018-12-30T11:45:36.093Z,74.29
2018-12-30T11:48:02.408Z,74.17
2018-12-30T11:50:28.803Z,73.61
2018-12-30T11:52:55.156Z,73.84
2018-12-30T11:55:24.748Z,74.15
2018-12-30T11:57:51.097Z,74.33
2018-12-30T12:00:17.459Z,73.89
2018-12-30T12:02:43.761Z,73.37
2018-12-30T12:05:10.210Z,72.94
2018-12-30T12:07:37.570Z,73.18
2018-12-30T12:10:03.904Z,72.63
2018-12-30T12:12:30.196Z,72.81
2018-12-30T12:14:56.495Z,73.08
2018-12-30T12:17:22.852Z,73.01
2018-12-30T12:19:49.209Z,73.24
2018-12-30T12:22:15.452Z,72.91
2018-12-30T12:24:41.802Z,73.36
2018-12-30T12:27:08.200Z,73.11
2018-12-30T12:29:34.617Z,73.07
2018-12-30T12:32:00.898Z,73.08
2018-12-30T12:34:27.229Z,73.04
2018-12-30T12:36:53.590Z,72.74
2018-12-30T12:39:19.890Z,72.83
2018-12-30T12:41:46.199Z,72.37
2018-12-30T12:44:12.517Z,72.07
2018-12-30T12:46:38.832Z,71.85
2018-12-30T12:49:05.134Z,71.49
2018-12-30T12:51:31.478Z,71.58
2018-12-30T12:53:58.039Z,71.42
2018-12-30T12:56:24.370Z,71.40
2018-12-30T12:58:50.657Z,71.45
2018-12-30T13:01:31.745Z,71.20
2018-12-30T13:03:58.017Z,71.38
2018-12-30T13:06:26.680Z,71.07
2018-12-30T13:08:50.967Z,71.24
2018-12-30T13:11:17.248Z,70.84
2018-12-30T13:13:43.834Z,70.83
2018-12-30T13:16:10.153Z,70.90
2018-12-30T13:18:36.437Z,71.01
2018-12-30T13:21:02.753Z,71.46
2018-12-30T13:23:29.068Z,71.25
2018-12-30T13:25:55.429Z,70.76
2018-12-30T13:28:21.776Z,70.23
2018-12-30T13:30:48.051Z,70.26
2018-12-30T13:33:14.361Z,69.97
2018-12-30T13:35:43.482Z,70.00
2018-12-30T13:38:06.968Z,69.55
2018-12-30T13:40:33.261Z,69.81
2018-12-30T13:42:59.580Z,69.65
2018-12-30T13:45:25.899Z,69.55
2018-12-30T13:47:52.243Z,68.95
2018-12-30T13:50:18.521Z,69.34
2018-12-30T13:52:44.886Z,69.57
2018-12-30T13:55:11.180Z,69.25
2018-12-30T13:57:37.529Z,68.82
2018-12-30T14:00:07.286Z,68.51
2018-12-30T14:02:33.559Z,68.33
2018-12-30T14:04:59.977Z,68.72
2018-12-30T14:07:26.272Z,68.62
2018-12-30T14:09:52.563Z,68.47
2018-12-30T14:12:18.878Z,68.56
2018-12-30T14:14:45.241Z,68.73
2018-12-30T14:17:11.598Z,68.68
2018-12-30T14:19:37.893Z,68.66
2018-12-30T14:22:04.170Z,68.95
2018-12-30T14:24:30.466Z,68.73
2018-12-30T14:26:59.973Z,68.81
2018-12-30T14:29:23.080Z,68.49
2018-12-30T14:31:49.379Z,68.52
2018-12-30T14:34:15.670Z,68.00
2018-12-30T14:36:42.091Z,68.30
2018-12-30T14:39:08.408Z,68.28
2018-12-30T14:41:34.709Z,68.80
2018-12-30T14:44:01.152Z,68.60
2018-12-30T14:46:34.656Z,68.73
2018-12-30T14:48:53.779Z,68.51
2018-12-30T14:51:20.059Z,68.27
2018-12-30T14:53:46.357Z,68.14
2018-12-30T14:56:12.670Z,68.77
2018-12-30T14:58:38.986Z,69.07
2018-12-30T15:01:05.343Z,69.02
2018-12-30T15:03:31.645Z,69.21
2018-12-30T15:05:57.953Z,69.34
2018-12-30T15:08:24.231Z,69.45
2018-12-30T15:10:50.550Z,69.31
2018-12-30T15:13:16.837Z,69.58
2018-12-30T15:15:43.145Z,69.83
2018-12-30T15:18:09.461Z,69.89
2018-12-30T15:20:35.742Z,70.76
2018-12-30T15:23:02.049Z,70.13
2018-12-30T15:25:28.387Z,70.47
2018-12-30T15:27:54.674Z,70.81
2018-12-30T15:30:20.994Z,71.20
2018-12-30T15:32:47.300Z,71.65
2018-12-30T15:35:13.635Z,71.88
2018-12-30T15:37:39.928Z,71.93
2018-12-30T15:40:06.216Z,72.22
2018-12-30T15:42:32.545Z,72.54
2018-12-30T15:44:58.826Z,72.66
2018-12-30T15:47:25.135Z,72.91
2018-12-30T15:49:51.429Z,73.28
2018-12-30T15:52:18.013Z,73.45
2018-12-30T15:54:44.496Z,73.57
2018-12-30T15:57:11.106Z,73.87
2018-12-30T15:59:38.075Z,74.48
2018-12-30T16:02:04.578Z,74.84
2018-12-30T16:04:32.173Z,75.06
2018-12-30T16:06:58.586Z,75.32
2018-12-30T16:09:25.001Z,75.69
2018-12-30T16:11:51.430Z,75.80
2018-12-30T16:14:18.290Z,76.01
2018-12-30T16:16:44.833Z,76.08
2018-12-30T16:19:12.729Z,75.85
2018-12-30T16:21:39.087Z,76.20
2018-12-30T16:24:08.598Z,76.39
2018-12-30T16:26:35.167Z,76.58
2018-12-30T16:29:01.763Z,77.00
2018-12-30T16:31:28.329Z,76.77
2018-12-30T16:33:54.779Z,77.00
2018-12-30T16:36:21.085Z,77.42
2018-12-30T16:38:47.393Z,77.60
2018-12-30T16:41:13.755Z,77.78
2018-12-30T16:43:40.173Z,77.93
2018-12-30T16:46:06.942Z,77.96
2018-12-30T16:48:33.251Z,78.25
2018-12-30T16:50:59.787Z,78.61
2018-12-30T16:53:26.155Z,79.06
2018-12-30T16:55:53.560Z,78.99
2018-12-30T16:58:22.974Z,79.13
2018-12-30T17:00:51.333Z,79.09
2018-12-30T17:03:18.083Z,78.99
2018-12-30T17:05:44.897Z,79.04
2018-12-30T17:08:11.603Z,79.33
2018-12-30T17:10:37.882Z,79.11
2018-12-30T17:13:04.183Z,79.04
2018-12-30T17:15:30.562Z,79.35
2018-12-30T17:17:57.013Z,79.05
2018-12-30T17:20:25.291Z,78.97
2018-12-30T17:22:51.643Z,79.05
2018-12-30T17:25:23.510Z,79.46
2018-12-30T17:27:49.951Z,79.65
2018-12-30T17:30:16.301Z,79.46
2018-12-30T17:32:42.655Z,79.32
2018-12-30T17:35:20.816Z,78.95
2018-12-30T17:38:26.413Z,79.09
2018-12-30T17:40:27.539Z,79.02
2018-12-30T17:42:54.005Z,79.11
2018-12-30T17:45:20.720Z,78.86
2018-12-30T17:47:47.048Z,78.47
2018-12-30T17:50:13.440Z,78.50
2018-12-30T17:52:39.782Z,78.55
2018-12-30T17:55:06.389Z,79.02
2018-12-30T17:57:42.264Z,78.70
2018-12-30T18:00:08.643Z,77.60
2018-12-30T18:02:34.970Z,78.18
2018-12-30T18:05:01.506Z,78.11
2018-12-30T18:07:27.803Z,78.04
2018-12-30T18:09:54.141Z,78.33
2018-12-30T18:12:20.501Z,77.97
2018-12-30T18:14:46.814Z,77.83
2018-12-30T18:17:41.193Z,77.95
2018-12-30T18:20:00.154Z,78.13
2018-12-30T18:22:26.378Z,78.02
2018-12-30T18:24:52.646Z,78.05
2018-12-30T18:27:19.099Z,77.33
2018-12-30T18:29:45.394Z,76.94
2018-12-30T18:32:11.725Z,77.03
2018-12-30T18:34:37.994Z,76.38
2018-12-30T18:37:04.294Z,76.00
2018-12-30T18:39:30.608Z,76.07
2018-12-30T18:41:56.873Z,75.92
2018-12-30T18:44:23.171Z,75.75
2018-12-30T18:46:49.464Z,75.62
2018-12-30T18:49:15.794Z,75.56
2018-12-30T18:51:42.095Z,76.16
2018-12-30T18:54:08.371Z,76.22
2018-12-30T18:56:34.674Z,76.20
2018-12-30T18:59:00.974Z,76.05
2018-12-30T19:01:27.259Z,76.10
2018-12-30T19:03:53.569Z,76.30
2018-12-30T19:06:19.898Z,75.99
2018-12-30T19:08:46.192Z,75.68
2018-12-30T19:11:12.474Z,75.63
2018-12-30T19:13:38.877Z,75.60
2018-12-30T19:16:05.160Z,76.01
2018-12-30T19:18:31.514Z,75.82
2018-12-30T19:20:57.793Z,75.76
2018-12-30T19:23:24.128Z,75.66
2018-12-30T19:25:50.458Z,75.84
2018-12-30T19:28:16.755Z,75.95
2018-12-30T19:30:43.060Z,75.89
2018-12-30T19:33:09.386Z,78.20
2018-12-30T19:35:35.667Z,78.52
2018-12-30T19:38:01.970Z,76.35
2018-12-30T19:40:28.293Z,74.74
2018-12-30T19:42:54.616Z,72.16
2018-12-30T19:45:20.888Z,72.64
2018-12-30T19:47:47.204Z,73.78
2018-12-30T19:50:13.497Z,75.64
2018-12-30T19:52:39.791Z,75.45
2018-12-30T19:55:06.072Z,75.46
2018-12-30T19:57:32.368Z,74.93
2018-12-30T19:59:58.676Z,76.32
2018-12-30T20:02:24.962Z,76.26
2018-12-30T20:04:51.249Z,75.75
2018-12-30T20:07:17.643Z,76.30
2018-12-30T20:09:43.941Z,75.76
2018-12-30T20:12:10.308Z,76.53
2018-12-30T20:14:36.589Z,77.37
2018-12-30T20:17:02.866Z,77.97
2018-12-30T20:19:29.191Z,78.33
2018-12-30T20:21:55.459Z,79.06
2018-12-30T20:24:21.873Z,79.63
2018-12-30T20:26:48.151Z,79.84
2018-12-30T20:29:14.439Z,80.21
2018-12-30T20:31:40.753Z,80.11
2018-12-30T20:34:07.062Z,80.33
2018-12-30T20:36:33.485Z,80.50
2018-12-30T20:38:59.780Z,80.78
2018-12-30T20:41:26.126Z,80.85
2018-12-30T20:43:52.450Z,81.04
2018-12-30T20:46:18.851Z,81.32
2018-12-30T20:48:45.060Z,81.41
2018-12-30T20:51:11.359Z,81.36
2018-12-30T20:53:37.692Z,81.65
2018-12-30T20:56:03.997Z,82.05
2018-12-30T20:58:30.291Z,82.27
2018-12-30T21:00:56.762Z,82.91
2018-12-30T21:03:23.043Z,83.14
2018-12-30T21:05:49.383Z,83.73
2018-12-30T21:08:15.681Z,84.14
2018-12-30T21:10:41.979Z,84.15
2018-12-30T21:13:08.261Z,84.55
2018-12-30T21:15:34.564Z,84.84
2018-12-30T21:18:00.893Z,84.95
2018-12-30T21:20:27.179Z,85.16
2018-12-30T21:22:53.474Z,85.31
2018-12-30T21:25:19.796Z,85.43
2018-12-30T21:27:46.098Z,85.48
2018-12-30T21:30:12.426Z,85.70
2018-12-30T21:32:38.702Z,85.80
2018-12-30T21:35:04.989Z,85.82
2018-12-30T21:37:31.281Z,85.93
2018-12-30T21:39:57.553Z,85.85
2018-12-30T21:42:23.867Z,85.74
2018-12-30T21:44:50.166Z,85.84
2018-12-30T21:47:16.446Z,85.79
2018-12-30T21:49:42.764Z,85.81
2018-12-30T21:52:09.037Z,85.65
2018-12-30T21:54:35.315Z,85.78
2018-12-30T21:57:01.625Z,85.95
2018-12-30T21:59:27.921Z,85.99
2018-12-30T22:01:54.246Z,85.91
2018-12-30T22:04:20.547Z,86.27
2018-12-30T22:06:46.840Z,86.26
2018-12-30T22:09:13.121Z,86.51
2018-12-30T22:11:39.422Z,86.25
2018-12-30T22:14:05.727Z,86.06
2018-12-30T22:16:32.013Z,85.83
2018-12-30T22:18:58.360Z,85.62
2018-12-30T22:21:24.680Z,85.89
2018-12-30T22:23:51.983Z,86.25
2018-12-30T22:26:17.258Z,86.62
2018-12-30T22:28:43.583Z,86.57
2018-12-30T22:31:09.902Z,86.68
2018-12-30T22:33:36.214Z,86.47
2018-12-30T22:36:02.509Z,86.45
2018-12-30T22:38:28.823Z,86.47
2018-12-30T22:40:55.119Z,86.20
2018-12-30T22:43:21.433Z,86.23
2018-12-30T22:45:47.729Z,86.07
2018-12-30T22:48:14.072Z,85.98
2018-12-30T22:50:40.410Z,85.79
2018-12-30T22:53:06.726Z,86.05
2018-12-30T22:55:33.004Z,85.82
2018-12-30T22:57:59.302Z,86.25
2018-12-30T23:00:25.657Z,86.17
2018-12-30T23:02:51.949Z,86.00
2018-12-30T23:05:18.238Z,85.81
2018-12-30T23:07:44.525Z,85.47
2018-12-30T23:10:10.828Z,85.45
2018-12-30T23:12:37.138Z,85.38
2018-12-30T23:15:03.414Z,85.51
2018-12-30T23:17:29.708Z,85.77
2018-12-30T23:19:55.986Z,85.75
2018-12-30T23:22:22.265Z,85.91
2018-12-30T23:24:48.557Z,86.19
2018-12-30T23:27:14.841Z,86.51
2018-12-30T23:29:41.173Z,86.63
2018-12-30T23:32:07.452Z,86.88
2018-12-30T23:34:33.756Z,86.99
2018-12-30T23:37:00.083Z,86.87
2018-12-30T23:39:26.373Z,86.70
2018-12-30T23:41:52.642Z,86.71
2018-12-30T23:44:19.137Z,86.99
2018-12-30T23:46:45.448Z,86.83
2018-12-30T23:49:11.745Z,86.64
2018-12-30T23:51:38.046Z,86.51
2018-12-30T23:54:04.321Z,86.42
2018-12-30T23:56:30.637Z,86.27
2018-12-30T23:58:56.935Z,86.39
